createdAt,value
2023-01-17T00:01:17.110Z,9.63
2023-01-17T00:04:05.826Z,13.08
2023-01-17T00:06:54.635Z,12.88
2023-01-17T00:09:43.088Z,12.95
2023-01-17T00:12:14.180Z,14.13
2023-01-17T00:14:45.210Z,15.58
2023-01-17T00:17:16.311Z,8.15
2023-01-17T00:20:04.905Z,10.20
2023-01-17T00:22:53.432Z,9.80
2023-01-17T00:25:43.982Z,14.98
2023-01-17T00:28:14.057Z,17.60
2023-01-17T00:30:44.056Z,19.32
2023-01-17T00:33:14.076Z,16.82
2023-01-17T00:35:44.453Z,11.08
2023-01-17T00:38:20.059Z,16.85
2023-01-17T00:40:50.653Z,13.55
2023-01-17T00:43:41.688Z,14.73
2023-01-17T00:46:30.565Z,16.87
2023-01-17T00:49:19.182Z,11.97
2023-01-17T00:52:08.032Z,11.57
2023-01-17T00:54:56.897Z,14.18
2023-01-17T00:57:45.993Z,14.13
2023-01-17T01:00:36.619Z,15.10
2023-01-17T01:03:30.073Z,15.60
2023-01-17T01:06:18.647Z,16.17
2023-01-17T01:09:07.042Z,12.80
2023-01-17T01:11:55.613Z,20.90
2023-01-17T01:14:44.061Z,12.82
2023-01-17T01:17:32.309Z,15.08
2023-01-17T01:20:21.171Z,13.28
2023-01-17T01:23:09.445Z,16.97
2023-01-17T01:25:57.884Z,17.85
2023-01-17T01:28:46.256Z,22.87
2023-01-17T01:31:34.618Z,16.02
2023-01-17T01:34:05.728Z,15.98
2023-01-17T01:36:36.764Z,14.25
2023-01-17T01:39:09.760Z,15.60
2023-01-17T01:41:40.941Z,15.15
2023-01-17T01:44:30.486Z,18.17
2023-01-17T01:47:02.038Z,13.20
2023-01-17T01:49:33.140Z,11.12
2023-01-17T01:52:05.838Z,13.20
2023-01-17T01:54:42.341Z,13.10
2023-01-17T01:57:16.661Z,8.68
2023-01-17T01:59:50.836Z,13.45
2023-01-17T02:02:22.773Z,9.10
2023-01-17T02:04:54.878Z,8.78
2023-01-17T02:07:28.552Z,9.73
2023-01-17T02:10:00.671Z,8.10
2023-01-17T02:12:32.184Z,8.25
2023-01-17T02:15:03.751Z,9.88
2023-01-17T02:17:40.240Z,7.10
2023-01-17T02:20:30.744Z,8.08
2023-01-17T02:23:21.994Z,6.80
2023-01-17T02:26:11.792Z,9.00
2023-01-17T02:28:48.109Z,16.05
2023-01-17T02:31:21.494Z,12.85
2023-01-17T02:33:57.728Z,10.13
2023-01-17T02:36:33.980Z,6.62
2023-01-17T02:39:10.417Z,8.80
2023-01-17T02:41:46.845Z,7.30
2023-01-17T02:44:19.752Z,10.60
2023-01-17T02:46:53.037Z,8.88
2023-01-17T02:49:26.521Z,7.40
2023-01-17T02:52:06.966Z,8.50
2023-01-17T02:54:52.523Z,8.08
2023-01-17T02:57:42.306Z,8.13
2023-01-17T03:00:25.011Z,8.95
2023-01-17T03:03:17.181Z,8.13
2023-01-17T03:05:53.429Z,8.25
2023-01-17T03:08:24.888Z,6.75
2023-01-17T03:10:56.205Z,11.63
2023-01-17T03:13:27.431Z,7.00
2023-01-17T03:16:00.975Z,6.78
2023-01-17T03:18:32.126Z,10.20
2023-01-17T03:21:03.156Z,7.28
2023-01-17T03:23:34.302Z,7.25
2023-01-17T03:26:05.446Z,7.33
2023-01-17T03:28:36.658Z,7.33
2023-01-17T03:31:07.874Z,9.88
2023-01-17T03:33:39.072Z,8.03
2023-01-17T03:36:10.599Z,8.50
2023-01-17T03:38:41.845Z,7.62
2023-01-17T03:41:12.881Z,6.03
2023-01-17T03:43:43.925Z,7.72
2023-01-17T03:46:26.192Z,7.25
2023-01-17T03:48:57.388Z,6.05
2023-01-17T03:51:28.408Z,8.98
2023-01-17T03:53:59.606Z,7.97
2023-01-17T03:56:30.845Z,5.28
2023-01-17T03:59:02.071Z,6.33
2023-01-17T04:01:33.209Z,9.75
2023-01-17T04:04:04.859Z,9.70
2023-01-17T04:06:36.133Z,7.37
2023-01-17T04:09:07.399Z,6.17
2023-01-17T04:11:38.405Z,7.15
2023-01-17T04:14:09.568Z,7.95
2023-01-17T04:16:41.777Z,6.72
2023-01-17T04:19:15.438Z,6.58
2023-01-17T04:21:46.581Z,8.48
2023-01-17T04:24:18.104Z,7.95
2023-01-17T04:26:49.485Z,6.75
2023-01-17T04:29:21.860Z,7.20
2023-01-17T04:31:53.164Z,8.10
2023-01-17T04:34:24.452Z,7.17
2023-01-17T04:36:59.909Z,6.85
2023-01-17T04:39:33.618Z,7.37
2023-01-17T04:42:06.179Z,7.45
2023-01-17T04:44:37.242Z,8.80
2023-01-17T04:47:08.484Z,7.40
2023-01-17T04:49:39.597Z,6.25
2023-01-17T04:52:10.653Z,11.05
2023-01-17T04:54:41.747Z,12.28
2023-01-17T04:57:16.654Z,6.58
2023-01-17T04:59:48.037Z,6.47
2023-01-17T05:02:19.170Z,7.83
2023-01-17T05:04:50.494Z,6.85
2023-01-17T05:07:27.762Z,11.70
2023-01-17T05:09:58.833Z,6.95
2023-01-17T05:12:30.364Z,11.70
2023-01-17T05:15:01.598Z,8.20
2023-01-17T05:17:32.643Z,9.45
2023-01-17T05:20:03.695Z,8.70
2023-01-17T05:22:34.714Z,9.23
2023-01-17T05:25:05.885Z,8.00
2023-01-17T05:27:36.935Z,12.13
2023-01-17T05:30:08.848Z,8.80
2023-01-17T05:32:40.019Z,9.68
2023-01-17T05:35:14.092Z,9.68
2023-01-17T05:37:49.420Z,7.78
2023-01-17T05:40:22.439Z,9.90
2023-01-17T05:42:55.444Z,9.35
2023-01-17T05:45:28.560Z,9.38
2023-01-17T05:48:00.531Z,8.23
2023-01-17T05:50:37.274Z,8.18
2023-01-17T05:53:19.400Z,8.80
2023-01-17T05:55:51.592Z,7.80
2023-01-17T05:58:41.648Z,7.75
2023-01-17T06:01:13.764Z,7.25
2023-01-17T06:03:44.852Z,11.75
2023-01-17T06:06:16.591Z,8.93
2023-01-17T06:08:48.039Z,9.93
2023-01-17T06:11:19.904Z,12.20
2023-01-17T06:13:52.142Z,9.53
2023-01-17T06:16:23.261Z,6.08
2023-01-17T06:18:54.329Z,9.83
2023-01-17T06:21:25.347Z,9.20
2023-01-17T06:23:57.571Z,8.63
2023-01-17T06:26:29.913Z,8.23
2023-01-17T06:29:01.016Z,8.10
2023-01-17T06:31:32.058Z,7.40
2023-01-17T06:34:05.008Z,8.48
2023-01-17T06:36:39.074Z,7.12
2023-01-17T06:39:14.919Z,8.50
2023-01-17T06:41:45.301Z,86.57
2023-01-17T06:44:16.390Z,10.65
2023-01-17T06:46:48.915Z,12.10
2023-01-17T06:49:19.989Z,9.10
2023-01-17T06:51:51.859Z,9.75
2023-01-17T06:54:22.978Z,10.80
2023-01-17T06:56:54.019Z,11.03
2023-01-17T06:59:25.164Z,7.55
2023-01-17T07:01:56.179Z,8.35
2023-01-17T07:04:27.263Z,9.65
2023-01-17T07:06:58.302Z,8.00
2023-01-17T07:09:29.827Z,10.05
2023-01-17T07:12:03.197Z,10.58
2023-01-17T07:14:34.859Z,8.43
2023-01-17T07:17:07.297Z,12.25
2023-01-17T07:19:38.495Z,8.15
2023-01-17T07:22:09.561Z,8.95
2023-01-17T07:24:40.581Z,6.62
2023-01-17T07:27:11.836Z,9.23
2023-01-17T07:29:42.994Z,7.00
2023-01-17T07:32:18.625Z,6.72
2023-01-17T07:34:49.722Z,7.72
2023-01-17T07:37:21.482Z,8.70
2023-01-17T07:39:52.664Z,7.12
2023-01-17T07:42:24.300Z,11.95
2023-01-17T07:44:55.587Z,11.00
2023-01-17T07:47:26.641Z,6.12
2023-01-17T07:49:58.058Z,5.83
2023-01-17T07:52:29.305Z,6.37
2023-01-17T07:55:00.453Z,6.87
2023-01-17T07:57:31.724Z,7.22
2023-01-17T08:00:02.915Z,8.30
2023-01-17T08:02:37.332Z,8.43
2023-01-17T08:05:08.135Z,8.18
2023-01-17T08:07:39.195Z,7.25
2023-01-17T08:10:13.189Z,6.58
2023-01-17T08:12:45.322Z,10.00
2023-01-17T08:15:16.983Z,9.20
2023-01-17T08:17:56.220Z,6.70
2023-01-17T08:20:29.856Z,7.58
2023-01-17T08:23:00.120Z,15.38
2023-01-17T08:25:31.151Z,9.33
2023-01-17T08:28:02.235Z,9.40
2023-01-17T08:30:33.519Z,9.50
2023-01-17T08:33:04.577Z,11.03
2023-01-17T08:35:36.340Z,8.10
2023-01-17T08:38:07.977Z,7.87
2023-01-17T08:40:39.019Z,6.95
2023-01-17T08:43:10.944Z,7.05
2023-01-17T08:45:43.677Z,7.40
2023-01-17T08:48:14.833Z,7.58
2023-01-17T08:50:45.898Z,6.80
2023-01-17T08:53:18.885Z,7.42
2023-01-17T08:55:49.836Z,8.13
2023-01-17T08:58:25.056Z,11.48
2023-01-17T09:01:09.098Z,9.98
2023-01-17T09:03:41.090Z,5.25
2023-01-17T09:06:16.926Z,8.48
2023-01-17T09:08:51.231Z,7.47
2023-01-17T09:11:22.515Z,8.25
2023-01-17T09:13:54.346Z,6.45
2023-01-17T09:16:25.937Z,6.70
2023-01-17T09:19:00.697Z,6.65
2023-01-17T09:21:31.906Z,8.43
2023-01-17T09:24:03.123Z,11.08
2023-01-17T09:26:34.153Z,6.25
2023-01-17T09:29:05.230Z,6.62
2023-01-17T09:31:36.429Z,8.85
2023-01-17T09:34:08.607Z,9.85
2023-01-17T09:36:39.740Z,8.63
2023-01-17T09:39:12.167Z,6.53
2023-01-17T09:42:05.109Z,12.70
2023-01-17T09:44:41.561Z,8.83
2023-01-17T09:47:33.008Z,6.80
2023-01-17T09:50:12.117Z,7.75
2023-01-17T09:52:43.326Z,9.05
2023-01-17T09:55:16.560Z,5.87
2023-01-17T09:57:59.148Z,9.93
2023-01-17T10:00:44.822Z,5.55
2023-01-17T10:03:27.444Z,9.13
2023-01-17T10:06:00.899Z,9.33
2023-01-17T10:08:58.720Z,13.22
2023-01-17T10:11:57.655Z,14.95
2023-01-17T10:14:37.189Z,8.73
2023-01-17T10:17:19.458Z,9.43
2023-01-17T10:20:10.918Z,8.65
2023-01-17T10:23:02.403Z,8.75
2023-01-17T10:25:43.045Z,9.83
2023-01-17T10:28:31.291Z,10.30
2023-01-17T10:31:04.955Z,9.28
2023-01-17T10:33:38.441Z,11.03
2023-01-17T10:36:12.308Z,27.73
2023-01-17T10:38:45.505Z,6.97
2023-01-17T10:41:48.784Z,8.80
2023-01-17T10:44:25.681Z,8.35
2023-01-17T10:47:08.190Z,8.08
2023-01-17T10:49:41.147Z,10.82
2023-01-17T10:52:29.462Z,8.85
2023-01-17T10:55:23.712Z,7.90
2023-01-17T10:57:55.472Z,7.60
2023-01-17T11:00:46.812Z,7.62
2023-01-17T11:03:24.282Z,8.80
2023-01-17T11:06:18.847Z,14.07
2023-01-17T11:08:55.649Z,9.20
2023-01-17T11:14:22.769Z,9.60
2023-01-17T11:17:04.138Z,14.38
2023-01-17T11:19:37.461Z,10.68
2023-01-17T11:22:10.704Z,11.05
2023-01-17T11:24:45.471Z,10.20
2023-01-17T11:27:37.258Z,9.95
2023-01-17T11:30:23.062Z,11.90
2023-01-17T11:32:59.588Z,8.00
2023-01-17T11:35:38.264Z,14.43
2023-01-17T11:38:17.657Z,10.75
2023-01-17T11:40:50.205Z,11.75
2023-01-17T11:43:28.799Z,12.68
2023-01-17T11:46:08.812Z,13.58
2023-01-17T11:48:41.285Z,13.13
2023-01-17T11:51:17.760Z,12.15
2023-01-17T11:53:50.561Z,12.15
2023-01-17T11:56:36.045Z,9.80
2023-01-17T11:59:27.801Z,12.53
2023-01-17T12:02:18.143Z,21.50
2023-01-17T12:05:17.465Z,18.57
2023-01-17T12:08:19.915Z,15.85
2023-01-17T12:11:03.655Z,22.05
2023-01-17T12:14:04.216Z,12.58
2023-01-17T12:16:43.587Z,13.25
2023-01-17T12:19:38.416Z,15.13
2023-01-17T12:22:17.599Z,10.65
2023-01-17T12:24:54.026Z,12.75
2023-01-17T12:27:51.247Z,18.67
2023-01-17T12:30:46.037Z,11.03
2023-01-17T12:33:40.368Z,13.85
2023-01-17T12:36:15.615Z,16.12
2023-01-17T12:38:49.152Z,13.58
2023-01-17T12:41:29.061Z,14.93
2023-01-17T12:44:03.066Z,16.17
2023-01-17T12:46:39.781Z,18.10
2023-01-17T12:49:48.207Z,21.10
2023-01-17T12:52:41.349Z,11.57
2023-01-17T12:55:20.503Z,17.23
2023-01-17T12:57:54.252Z,16.77
2023-01-17T13:00:28.026Z,18.07
2023-01-17T13:03:16.905Z,13.85
2023-01-17T13:05:50.171Z,14.53
2023-01-17T13:08:29.435Z,18.17
2023-01-17T13:11:09.069Z,15.78
2023-01-17T13:13:41.845Z,20.72
2023-01-17T13:16:22.832Z,17.30
2023-01-17T13:18:54.849Z,17.65
2023-01-17T13:21:33.995Z,17.92
2023-01-17T13:24:10.265Z,21.42
2023-01-17T13:27:02.153Z,22.73
2023-01-17T13:29:44.802Z,24.23
2023-01-17T13:32:34.703Z,26.10
2023-01-17T13:35:09.777Z,22.10
2023-01-17T13:38:01.335Z,18.37
2023-01-17T13:40:46.811Z,22.85
2023-01-17T13:43:23.342Z,23.60
2023-01-17T13:45:56.862Z,19.95
2023-01-17T13:48:37.276Z,21.80
2023-01-17T13:51:12.591Z,23.98
2023-01-17T13:53:46.036Z,27.07
2023-01-17T13:56:19.658Z,24.63
2023-01-17T13:58:58.045Z,31.02
2023-01-17T14:01:44.398Z,29.00
2023-01-17T14:04:16.389Z,26.60
2023-01-17T14:07:00.592Z,22.67
2023-01-17T14:09:45.082Z,23.98
2023-01-17T14:12:24.104Z,24.02
2023-01-17T14:15:00.224Z,29.10
2023-01-17T14:17:39.460Z,25.35
2023-01-17T14:20:17.281Z,26.50
2023-01-17T14:22:56.604Z,26.23
2023-01-17T14:25:36.147Z,29.67
2023-01-17T14:28:12.103Z,24.05
2023-01-17T14:30:43.497Z,24.03
2023-01-17T14:33:17.002Z,24.20
2023-01-17T14:35:56.995Z,25.08
2023-01-17T14:38:33.134Z,21.57
2023-01-17T14:41:13.037Z,33.02
2023-01-17T14:43:46.597Z,26.30
2023-01-17T14:46:30.489Z,22.95
2023-01-17T14:49:13.218Z,23.80
2023-01-17T14:51:44.254Z,23.77
2023-01-17T14:54:24.133Z,28.77
2023-01-17T14:56:56.441Z,25.50
2023-01-17T14:59:27.521Z,21.85
2023-01-17T15:02:07.712Z,21.30
2023-01-17T15:04:35.314Z,22.52
2023-01-17T15:07:07.104Z,26.97
2023-01-17T15:09:42.459Z,26.95
2023-01-17T15:12:17.872Z,27.10
2023-01-17T15:14:49.983Z,27.55
2023-01-17T15:17:26.667Z,22.65
2023-01-17T15:20:08.871Z,24.37
2023-01-17T15:22:41.029Z,21.40
2023-01-17T15:25:16.146Z,22.73
2023-01-17T15:27:46.698Z,23.45
2023-01-17T15:30:23.120Z,20.70
2023-01-17T15:32:54.613Z,22.00
2023-01-17T15:35:26.274Z,19.92
2023-01-17T15:37:59.511Z,17.57
2023-01-17T15:40:31.907Z,23.38
2023-01-17T15:43:03.379Z,24.02
2023-01-17T15:45:37.347Z,20.85
2023-01-17T15:48:40.955Z,20.48
2023-01-17T15:51:13.978Z,18.32
2023-01-17T15:53:45.953Z,17.62
2023-01-17T15:56:28.230Z,18.00
2023-01-17T15:59:00.554Z,16.45
2023-01-17T16:01:34.914Z,13.45
2023-01-17T16:04:08.537Z,22.95
2023-01-17T16:06:42.563Z,14.63
2023-01-17T16:09:24.899Z,12.15
2023-01-17T16:11:55.912Z,14.13
2023-01-17T16:14:30.686Z,14.53
2023-01-17T16:17:00.852Z,17.77
2023-01-17T16:19:32.103Z,13.45
2023-01-17T16:22:06.422Z,12.18
2023-01-17T16:24:37.477Z,13.13
2023-01-17T16:27:10.191Z,18.23
2023-01-17T16:29:42.071Z,13.15
2023-01-17T16:32:13.323Z,12.60
2023-01-17T16:34:44.442Z,8.68
2023-01-17T16:37:15.491Z,10.85
2023-01-17T16:39:47.559Z,10.53
2023-01-17T16:42:18.847Z,9.73
2023-01-17T16:44:49.148Z,12.28
2023-01-17T16:47:20.202Z,8.63
2023-01-17T16:49:51.233Z,10.38
2023-01-17T16:52:22.604Z,10.90
2023-01-17T16:54:54.029Z,8.35
2023-01-17T16:57:25.053Z,10.35
2023-01-17T16:59:56.136Z,8.38
2023-01-17T17:02:27.356Z,8.05
2023-01-17T17:04:58.544Z,5.85
2023-01-17T17:07:29.581Z,6.33
2023-01-17T17:10:00.669Z,6.92
2023-01-17T17:12:31.715Z,10.40
2023-01-17T17:15:02.810Z,8.58
2023-01-17T17:17:35.010Z,14.95
2023-01-17T17:20:06.369Z,9.35
2023-01-17T17:22:38.537Z,6.50
2023-01-17T17:25:10.561Z,7.90
2023-01-17T17:27:41.791Z,6.97
2023-01-17T17:30:13.107Z,7.03
2023-01-17T17:32:46.330Z,6.00
2023-01-17T17:35:19.115Z,5.20
2023-01-17T17:37:50.432Z,5.70
2023-01-17T17:40:21.868Z,6.42
2023-01-17T17:42:54.521Z,6.95
2023-01-17T17:45:25.536Z,5.28
2023-01-17T17:47:56.878Z,4.58
2023-01-17T17:50:27.311Z,9.75
2023-01-17T17:52:58.404Z,5.60
2023-01-17T17:55:30.435Z,7.05
2023-01-17T17:58:02.755Z,6.70
2023-01-17T18:00:33.819Z,7.72
2023-01-17T18:03:05.130Z,7.53
2023-01-17T18:05:36.201Z,5.03
2023-01-17T18:08:08.118Z,4.47
2023-01-17T18:10:39.731Z,8.15
2023-01-17T18:13:10.820Z,8.55
2023-01-17T18:15:41.890Z,6.15
2023-01-17T18:18:12.955Z,7.87
2023-01-17T18:20:43.983Z,6.22
2023-01-17T18:23:14.999Z,3.70
2023-01-17T18:25:45.763Z,5.20
2023-01-17T18:28:16.998Z,4.80
2023-01-17T18:30:48.055Z,4.83
2023-01-17T18:33:19.443Z,6.55
2023-01-17T18:36:00.288Z,6.90
2023-01-17T18:38:34.739Z,5.45
2023-01-17T18:41:07.673Z,5.75
2023-01-17T18:43:38.699Z,4.92
2023-01-17T18:46:12.884Z,4.90
2023-01-17T18:48:43.961Z,4.85
2023-01-17T18:51:21.379Z,6.60
2023-01-17T18:53:53.685Z,6.53
2023-01-17T18:56:32.613Z,7.00
2023-01-17T18:59:00.002Z,4.25
2023-01-17T19:01:36.147Z,4.87
2023-01-17T19:04:08.174Z,4.62
2023-01-17T19:06:42.014Z,5.40
2023-01-17T19:09:15.221Z,4.72
2023-01-17T19:11:48.146Z,5.90
2023-01-17T19:14:19.173Z,5.53
2023-01-17T19:16:50.222Z,6.37
2023-01-17T19:19:21.256Z,3.83
2023-01-17T19:21:53.524Z,3.95
2023-01-17T19:24:24.545Z,5.47
2023-01-17T19:26:55.579Z,3.37
2023-01-17T19:29:27.805Z,3.98
2023-01-17T19:31:58.892Z,4.75
2023-01-17T19:34:29.900Z,4.87
2023-01-17T19:37:00.908Z,4.25
2023-01-17T19:39:32.330Z,4.62
2023-01-17T19:42:03.343Z,3.77
2023-01-17T19:44:34.395Z,3.02
2023-01-17T19:47:05.414Z,3.20
2023-01-17T19:49:36.482Z,4.15
2023-01-17T19:52:07.754Z,2.80
2023-01-17T19:54:38.824Z,4.50
2023-01-17T19:57:09.851Z,3.87
2023-01-17T19:59:40.888Z,3.98
2023-01-17T20:02:12.789Z,3.05
2023-01-17T20:04:44.009Z,3.98
2023-01-17T20:07:15.036Z,3.42
2023-01-17T20:09:46.165Z,3.47
2023-01-17T20:12:17.426Z,3.35
2023-01-17T20:14:48.439Z,3.70
2023-01-17T20:17:19.458Z,3.10
2023-01-17T20:19:50.480Z,5.67
2023-01-17T20:22:22.697Z,3.02
2023-01-17T20:24:53.721Z,4.17
2023-01-17T20:27:26.141Z,4.37
2023-01-17T20:29:58.006Z,5.05
2023-01-17T20:32:29.863Z,4.35
2023-01-17T20:35:01.058Z,3.45
2023-01-17T20:37:32.131Z,4.97
2023-01-17T20:40:03.180Z,3.15
2023-01-17T20:42:34.233Z,4.05
2023-01-17T20:45:05.361Z,3.95
2023-01-17T20:47:36.426Z,3.33
2023-01-17T20:50:08.729Z,5.35
2023-01-17T20:52:39.776Z,4.15
2023-01-17T20:55:11.400Z,3.00
2023-01-17T20:57:42.418Z,4.83
2023-01-17T21:00:14.676Z,3.17
2023-01-17T21:02:46.374Z,2.98
2023-01-17T21:05:17.511Z,4.78
2023-01-17T21:07:48.220Z,4.78
2023-01-17T21:10:19.578Z,4.37
2023-01-17T21:12:50.870Z,3.42
2023-01-17T21:15:21.556Z,3.87
2023-01-17T21:17:52.330Z,4.40
2023-01-17T21:20:24.238Z,3.30
2023-01-17T21:22:54.894Z,3.42
2023-01-17T21:25:25.704Z,3.58
2023-01-17T21:27:56.630Z,4.40
2023-01-17T21:30:27.589Z,2.95
2023-01-17T21:32:58.299Z,3.65
2023-01-17T21:35:29.580Z,3.50
2023-01-17T21:38:00.273Z,3.67
2023-01-17T21:40:30.955Z,3.62
2023-01-17T21:43:01.956Z,4.72
2023-01-17T21:45:34.315Z,3.58
2023-01-17T21:48:05.198Z,4.03
2023-01-17T21:50:36.842Z,6.17
2023-01-17T21:53:07.879Z,6.05
2023-01-17T21:58:46.021Z,8.33
2023-01-17T22:01:22.003Z,6.17
2023-01-17T22:03:55.158Z,3.10
2023-01-17T22:06:28.054Z,4.22
2023-01-17T22:08:59.351Z,3.47
2023-01-17T22:11:31.477Z,4.28
2023-01-17T22:14:03.857Z,4.08
2023-01-17T22:16:35.153Z,4.95
2023-01-17T22:19:06.123Z,7.15
2023-01-17T22:21:37.078Z,5.55
2023-01-17T22:24:08.729Z,4.60
2023-01-17T22:26:41.801Z,5.17
2023-01-17T22:29:13.522Z,3.33
2023-01-17T22:31:44.234Z,2.70
2023-01-17T22:34:16.536Z,5.30
2023-01-17T22:36:47.323Z,5.95
2023-01-17T22:39:18.572Z,4.70
2023-01-17T22:41:49.921Z,3.65
2023-01-17T22:44:21.207Z,6.03
2023-01-17T22:46:52.455Z,4.12
2023-01-17T22:49:26.971Z,7.80
2023-01-17T22:51:58.679Z,5.62
2023-01-17T22:54:31.165Z,7.42
2023-01-17T22:57:02.523Z,4.50
2023-01-17T22:59:35.096Z,6.58
2023-01-17T23:02:05.766Z,7.58
2023-01-17T23:04:44.893Z,8.50
2023-01-17T23:07:15.697Z,11.22
2023-01-17T23:09:46.991Z,8.30
2023-01-17T23:12:17.704Z,10.03
2023-01-17T23:15:06.606Z,7.17
2023-01-17T23:17:54.831Z,6.95
2023-01-17T23:20:25.531Z,10.43
2023-01-17T23:22:56.457Z,6.60
2023-01-17T23:25:27.515Z,8.88
2023-01-17T23:28:13.465Z,6.80
2023-01-17T23:30:44.683Z,6.93
2023-01-17T23:33:17.506Z,7.85
2023-01-17T23:35:49.190Z,8.28
2023-01-17T23:38:27.768Z,10.23
2023-01-17T23:41:24.766Z,9.85
2023-01-17T23:43:57.293Z,13.35
2023-01-17T23:46:29.868Z,14.95
2023-01-17T23:49:19.663Z,12.35
2023-01-17T23:51:51.601Z,12.03
2023-01-17T23:54:22.478Z,13.75
2023-01-17T23:56:53.204Z,18.80
2023-01-17T23:59:23.998Z,20.62
